createdAt,value
2019-04-28T00:02:22.462Z,98601.88
2019-04-28T00:07:27.934Z,98600.00
2019-04-28T00:12:33.337Z,98597.80
2019-04-28T00:17:39.180Z,98594.52
2019-04-28T00:22:53.138Z,98598.10
2019-04-28T00:27:58.558Z,98599.69
2019-04-28T00:33:04.105Z,98601.52
2019-04-28T00:38:11.515Z,98599.91
2019-04-28T00:43:17.828Z,98594.07
2019-04-28T00:48:23.796Z,98599.59
2019-04-28T00:53:31.088Z,98601.31
2019-04-28T00:58:36.385Z,98597.33
2019-04-28T01:03:42.132Z,98597.92
2019-04-28T01:08:47.561Z,98603.36
2019-04-28T01:13:52.845Z,98599.37
2019-04-28T01:19:06.543Z,98595.12
2019-04-28T01:24:13.284Z,98598.45
2019-04-28T01:29:19.518Z,98605.64
2019-04-28T01:34:25.220Z,98609.98
2019-04-28T01:39:30.543Z,98609.18
2019-04-28T01:44:35.883Z,98611.98
2019-04-28T01:49:41.760Z,98605.48
2019-04-28T01:54:47.040Z,98613.03
2019-04-28T01:59:52.252Z,98621.70
2019-04-28T02:04:59.691Z,98631.04
2019-04-28T02:10:05.321Z,98617.20
2019-04-28T02:15:10.956Z,98624.28
2019-04-28T02:20:20.162Z,98622.13
2019-04-28T02:25:25.547Z,98625.23
2019-04-28T02:30:42.347Z,98617.13
2019-04-28T02:35:38.275Z,98615.88
2019-04-28T02:40:43.612Z,98625.89
2019-04-28T02:45:52.949Z,98623.31
2019-04-28T02:51:02.273Z,98625.65
2019-04-28T02:56:11.049Z,98628.61
2019-04-28T03:01:22.844Z,98628.91
2019-04-28T03:06:22.560Z,98632.67
2019-04-28T03:11:27.800Z,98625.59
2019-04-28T03:16:33.072Z,98626.70
2019-04-28T03:21:41.382Z,98625.91
2019-04-28T03:26:53.568Z,98625.34
2019-04-28T03:32:28.082Z,98629.78
2019-04-28T03:37:14.986Z,98628.16
2019-04-28T03:42:21.922Z,98628.16
2019-04-28T03:47:27.421Z,98629.70
2019-04-28T03:52:32.996Z,98630.89
2019-04-28T03:57:41.007Z,98630.89
2019-04-28T04:02:45.457Z,98621.16
2019-04-28T04:07:50.881Z,98626.83
2019-04-28T04:13:07.643Z,98628.25
2019-04-28T04:18:17.965Z,98634.99
2019-04-28T04:23:26.028Z,98631.97
2019-04-28T04:28:31.398Z,98634.71
2019-04-28T04:33:36.757Z,98636.20
2019-04-28T04:38:45.824Z,98643.41
2019-04-28T04:43:51.260Z,98656.23
2019-04-28T04:48:56.923Z,98662.67
2019-04-28T04:54:02.134Z,98664.25
2019-04-28T04:59:07.560Z,98672.14
2019-04-28T05:04:25.179Z,98673.95
2019-04-28T05:09:31.174Z,98670.77
2019-04-28T05:14:37.126Z,98674.39
2019-04-28T05:19:43.241Z,98681.18
2019-04-28T05:25:13.743Z,98687.06
2019-04-28T05:30:20.423Z,98689.72
2019-04-28T05:35:25.783Z,98694.47
2019-04-28T05:40:31.038Z,98686.29
2019-04-28T05:45:36.754Z,98697.05
2019-04-28T05:51:01.856Z,98697.48
2019-04-28T05:56:15.509Z,98706.34
2019-04-28T06:01:30.342Z,98710.84
2019-04-28T06:06:40.498Z,98711.06
2019-04-28T06:11:46.038Z,98704.82
2019-04-28T06:16:51.399Z,98707.81
2019-04-28T06:21:56.710Z,98723.66
2019-04-28T06:27:02.996Z,98720.50
2019-04-28T06:32:08.675Z,98721.73
2019-04-28T06:37:14.284Z,98724.77
2019-04-28T06:42:19.784Z,98727.48
2019-04-28T06:47:25.117Z,98730.48
2019-04-28T06:52:30.747Z,98737.26
2019-04-28T06:57:36.021Z,98734.15
2019-04-28T07:02:41.300Z,98740.24
2019-04-28T07:07:46.615Z,98736.80
2019-04-28T07:12:51.960Z,98734.70
2019-04-28T07:17:57.299Z,98734.30
2019-04-28T07:23:02.697Z,98729.12
2019-04-28T07:28:08.069Z,98730.80
2019-04-28T07:33:13.774Z,98737.95
2019-04-28T07:38:19.367Z,98738.80
2019-04-28T07:43:24.720Z,98741.52
2019-04-28T07:48:30.151Z,98749.73
2019-04-28T07:53:55.351Z,98749.44
2019-04-28T07:59:00.680Z,98756.84
2019-04-28T08:04:07.413Z,98763.36
2019-04-28T08:09:14.906Z,98765.13
2019-04-28T08:14:20.349Z,98774.16
2019-04-28T08:19:25.753Z,98772.95
2019-04-28T08:24:31.266Z,98767.24
2019-04-28T08:29:36.615Z,98775.33
2019-04-28T08:34:42.457Z,98779.04
2019-04-28T08:39:47.765Z,98779.15
2019-04-28T08:44:52.979Z,98781.83
2019-04-28T08:49:58.506Z,98781.83
2019-04-28T08:55:04.021Z,98783.06
2019-04-28T09:00:11.185Z,98789.02
2019-04-28T09:05:16.718Z,98783.92
2019-04-28T09:10:22.498Z,98792.75
2019-04-28T09:15:28.006Z,98799.75
2019-04-28T09:20:33.753Z,98788.60
2019-04-28T09:25:39.948Z,98801.25
2019-04-28T09:30:45.589Z,98800.23
2019-04-28T09:35:51.022Z,98808.34
2019-04-28T09:40:56.748Z,98806.76
2019-04-28T09:46:04.566Z,98806.45
2019-04-28T09:51:09.948Z,98806.40
2019-04-28T09:56:15.194Z,98806.55
2019-04-28T10:01:20.837Z,98808.38
2019-04-28T10:06:26.147Z,98797.01
2019-04-28T10:11:31.814Z,98801.77
2019-04-28T10:16:37.300Z,98803.92
2019-04-28T10:21:43.355Z,98804.77
2019-04-28T10:26:49.676Z,98796.00
2019-04-28T10:31:54.902Z,98791.77
2019-04-28T10:37:00.227Z,98786.84
2019-04-28T10:42:06.879Z,98794.11
2019-04-28T10:47:12.215Z,98788.81
2019-04-28T10:52:17.482Z,98780.42
2019-04-28T10:57:22.993Z,98777.91
2019-04-28T11:02:28.317Z,98768.57
2019-04-28T11:07:34.198Z,98759.47
2019-04-28T11:12:39.935Z,98758.37
2019-04-28T11:17:45.624Z,98752.30
2019-04-28T11:22:51.382Z,98755.30
2019-04-28T11:27:56.785Z,98758.94
2019-04-28T11:33:14.972Z,98752.69
2019-04-28T11:38:20.316Z,98750.30
2019-04-28T11:43:25.617Z,98746.02
2019-04-28T11:48:30.966Z,98753.29
2019-04-28T11:53:36.519Z,98750.56
2019-04-28T11:58:41.759Z,98743.98
2019-04-28T12:03:48.825Z,98749.15
2019-04-28T12:08:57.197Z,98747.41
2019-04-28T12:14:30.406Z,98740.27
2019-04-28T12:19:45.586Z,98741.20
2019-04-28T12:24:50.874Z,98744.45
2019-04-28T12:29:56.111Z,98737.78
2019-04-28T12:35:01.501Z,98740.60
2019-04-28T12:40:08.093Z,98739.09
2019-04-28T12:45:13.650Z,98733.45
2019-04-28T12:50:24.559Z,98732.34
2019-04-28T12:55:31.082Z,98739.79
2019-04-28T13:00:54.120Z,98750.55
2019-04-28T13:06:05.636Z,98748.08
2019-04-28T13:11:07.883Z,98753.97
2019-04-28T13:16:13.290Z,98751.59
2019-04-28T13:21:18.783Z,98763.56
2019-04-28T13:26:24.105Z,98760.07
2019-04-28T13:31:29.435Z,98758.56
2019-04-28T13:36:35.047Z,98756.35
2019-04-28T13:41:40.888Z,98770.03
2019-04-28T13:46:46.402Z,98765.92
2019-04-28T13:51:51.650Z,98766.44
2019-04-28T13:56:57.004Z,98767.03
2019-04-28T14:02:12.811Z,98766.02
2019-04-28T14:07:18.257Z,98768.44
2019-04-28T14:12:23.783Z,98768.76
2019-04-28T14:17:29.568Z,98765.63
2019-04-28T14:22:34.938Z,98766.83
2019-04-28T14:27:40.355Z,98759.27
2019-04-28T14:32:45.670Z,98748.38
2019-04-28T14:37:51.029Z,98739.94
2019-04-28T14:42:56.282Z,98738.67
2019-04-28T14:48:02.703Z,98742.95
2019-04-28T14:53:08.911Z,98726.02
2019-04-28T14:58:14.555Z,98726.21
2019-04-28T15:03:22.856Z,98722.42
2019-04-28T15:09:02.243Z,98724.22
2019-04-28T15:14:09.086Z,98725.63
2019-04-28T15:19:14.481Z,98718.21
2019-04-28T15:24:19.847Z,98716.26
2019-04-28T15:29:25.760Z,98717.32
2019-04-28T15:34:31.021Z,98716.14
2019-04-28T15:39:36.668Z,98727.25
2019-04-28T15:44:42.090Z,98723.48
2019-04-28T15:49:47.451Z,98728.25
2019-04-28T15:54:52.702Z,98736.04
2019-04-28T15:59:58.352Z,98739.05
2019-04-28T16:05:03.935Z,98747.70
2019-04-28T16:10:10.854Z,98747.36
2019-04-28T16:15:16.249Z,98751.80
2019-04-28T16:20:22.011Z,98759.75
2019-04-28T16:25:27.758Z,98762.35
2019-04-28T16:30:33.106Z,98764.02
2019-04-28T16:35:40.065Z,98769.14
2019-04-28T16:40:48.191Z,98777.88
2019-04-28T16:45:53.465Z,98783.77
2019-04-28T16:50:58.699Z,98785.61
2019-04-28T16:56:26.330Z,98791.77
2019-04-28T17:01:56.603Z,98799.89
2019-04-28T17:07:01.883Z,98804.17
2019-04-28T17:12:07.223Z,98816.59
2019-04-28T17:17:12.615Z,98815.12
2019-04-28T17:22:18.920Z,98821.62
2019-04-28T17:27:24.321Z,98826.11
2019-04-28T17:32:30.044Z,98832.62
2019-04-28T17:37:35.615Z,98828.70
2019-04-28T17:42:41.028Z,98833.91
2019-04-28T17:47:46.385Z,98843.14
2019-04-28T17:52:51.633Z,98843.34
2019-04-28T17:57:56.877Z,98856.05
2019-04-28T18:03:11.909Z,98849.36
2019-04-28T18:08:21.223Z,98859.53
2019-04-28T18:13:24.374Z,98868.61
2019-04-28T18:18:52.437Z,98877.15
2019-04-28T18:23:58.060Z,98886.09
2019-04-28T18:29:03.837Z,98896.59
2019-04-28T18:34:40.428Z,98898.22
2019-04-28T18:40:03.780Z,98900.95
2019-04-28T18:45:10.773Z,98910.45
2019-04-28T18:50:18.353Z,98915.35
2019-04-28T18:55:24.245Z,98924.36
2019-04-28T19:00:31.361Z,98939.88
2019-04-28T19:05:38.925Z,98952.22
2019-04-28T19:11:04.211Z,98959.48
2019-04-28T19:16:32.429Z,98969.64
2019-04-28T19:21:38.763Z,98966.25
2019-04-28T19:26:44.247Z,98979.17
2019-04-28T19:31:49.656Z,98979.70
2019-04-28T19:36:55.219Z,98993.81
2019-04-28T19:42:00.747Z,99003.48
2019-04-28T19:47:06.361Z,98997.84
2019-04-28T19:52:11.737Z,99007.66
2019-04-28T19:57:26.961Z,99015.42
2019-04-28T20:02:34.875Z,99021.58
2019-04-28T20:07:41.012Z,99023.94
2019-04-28T20:12:47.398Z,99023.44
2019-04-28T20:17:52.757Z,99024.55
2019-04-28T20:22:58.174Z,99027.98
2019-04-28T20:28:03.607Z,99028.70
2019-04-28T20:33:09.869Z,99027.21
2019-04-28T20:38:24.476Z,99034.38
2019-04-28T20:43:29.883Z,99033.68
2019-04-28T20:48:35.377Z,99040.36
2019-04-28T20:53:40.727Z,99046.95
2019-04-28T20:58:46.078Z,99056.41
2019-04-28T21:03:51.370Z,99062.08
2019-04-28T21:08:56.914Z,99071.91
2019-04-28T21:14:02.425Z,99081.75
2019-04-28T21:19:07.934Z,99078.52
2019-04-28T21:24:13.294Z,99080.72
2019-04-28T21:29:19.998Z,99084.21
2019-04-28T21:34:26.888Z,99089.91
2019-04-28T21:39:32.596Z,99092.20
2019-04-28T21:44:57.067Z,99099.78
2019-04-28T21:50:02.404Z,99099.14
2019-04-28T21:55:07.808Z,99092.52
2019-04-28T22:00:14.804Z,99089.09
2019-04-28T22:05:38.552Z,99094.77
2019-04-28T22:10:43.815Z,99092.77
2019-04-28T22:15:49.123Z,99095.61
2019-04-28T22:20:54.624Z,99096.18
2019-04-28T22:26:00.186Z,99098.45
2019-04-28T22:31:05.557Z,99108.36
2019-04-28T22:36:10.926Z,99110.36
2019-04-28T22:41:16.714Z,99114.41
2019-04-28T22:46:22.184Z,99113.32
2019-04-28T22:51:27.714Z,99116.97
2019-04-28T22:56:42.021Z,99126.80
2019-04-28T23:01:57.299Z,99130.34
2019-04-28T23:07:02.584Z,99138.16
2019-04-28T23:12:09.643Z,99138.45
2019-04-28T23:17:16.885Z,99138.06
2019-04-28T23:22:46.978Z,99145.19
2019-04-28T23:27:47.334Z,99145.18
2019-04-28T23:32:52.667Z,99148.41
2019-04-28T23:37:58.320Z,99146.45
2019-04-28T23:43:07.199Z,99153.78
2019-04-28T23:48:12.425Z,99147.37
2019-04-28T23:53:18.574Z,99154.06
